Time;durP1;ratioP1;P1;durP2;ratioP2;P2;SDS_P1;SDS_P2;PMS_P1;PMS_P2;Temp;Humidity;BMP_temperature;BMP_pressure;BME280_temperature;BME280_humidity;BME280_pressure;Samples;Min_cycle;Max_cycle;Signal;HPM_P1;HPM_P2
2023/01/23 00:04:25;;;;;;;22.33;14.37;;;4.60;99.90;;;;;;10474231;28;20303;-94
2023/01/23 00:09:31;;;;;;;20.63;13.67;;;4.90;99.90;;;;;;10495082;28;20275;-94
2023/01/23 00:14:33;;;;;;;21.17;14.07;;;3.90;99.90;;;;;;10475487;28;20311;-94
2023/01/23 00:19:36;;;;;;;21.63;14.60;;;3.30;99.90;;;;;;10428343;28;20292;-92
2023/01/23 00:24:39;;;;;;;20.50;12.90;;;4.00;99.90;;;;;;10449145;28;20269;-92
2023/01/23 00:29:41;;;;;;;19.47;12.57;;;4.20;99.90;;;;;;10453661;28;20234;-92
2023/01/23 00:34:44;;;;;;;19.73;13.03;;;4.50;99.90;;;;;;10453803;28;20660;-93
2023/01/23 00:39:50;;;;;;;19.23;12.83;;;4.20;99.90;;;;;;10451322;28;20640;-92
2023/01/23 00:44:52;;;;;;;20.50;14.27;;;3.10;99.90;;;;;;10467507;28;20252;-92
2023/01/23 00:49:56;;;;;;;18.90;13.70;;;3.60;99.90;;;;;;10451528;28;20296;-92
2023/01/23 00:54:59;;;;;;;18.30;13.50;;;4.20;99.90;;;;;;10435333;28;20268;-92
2023/01/23 01:00:02;;;;;;;18.80;12.50;;;3.30;99.90;;;;;;10434067;28;20324;-92
2023/01/23 01:05:05;;;;;;;22.60;13.93;;;2.80;99.90;;;;;;10461281;28;20315;-92
2023/01/23 01:10:09;;;;;;;18.80;11.73;;;2.60;99.90;;;;;;10492355;28;20246;-93
2023/01/23 01:15:12;;;;;;;16.93;12.40;;;2.50;99.90;;;;;;10493032;28;20269;-92
2023/01/23 01:20:15;;;;;;;19.93;12.73;;;3.00;99.90;;;;;;10460209;28;20312;-92
2023/01/23 01:25:18;;;;;;;19.03;13.67;;;3.20;99.90;;;;;;10466895;28;20310;-91
2023/01/23 01:30:20;;;;;;;22.90;15.57;;;3.20;99.90;;;;;;10449816;28;20676;-92
2023/01/23 01:35:24;;;;;;;20.30;13.70;;;2.80;99.90;;;;;;10449652;28;20230;-92
2023/01/23 01:40:32;;;;;;;21.97;14.50;;;2.90;99.90;;;;;;10462096;28;20258;-92
2023/01/23 01:46:06;;;;;;;19.70;13.90;;;2.20;99.90;;;;;;10449555;28;20238;-92
2023/01/23 01:51:43;;;;;;;25.40;14.37;;;2.40;99.90;;;;;;10416234;28;20655;-92
2023/01/23 01:56:58;;;;;;;16.53;10.93;;;2.40;99.90;;;;;;10465746;28;20273;-92
2023/01/23 02:02:09;;;;;;;25.40;15.33;;;2.00;99.90;;;;;;10465774;28;20289;-92
2023/01/23 02:07:36;;;;;;;17.13;13.00;;;2.30;99.90;;;;;;10449514;28;20363;-91
2023/01/23 02:12:39;;;;;;;17.57;11.03;;;2.10;99.90;;;;;;10415934;28;20583;-92
2023/01/23 02:17:44;;;;;;;20.70;12.27;;;2.50;99.90;;;;;;10478762;28;20284;-92
2023/01/23 02:23:18;;;;;;;18.83;12.97;;;2.00;99.90;;;;;;10431542;28;20732;-92
2023/01/23 02:28:21;;;;;;;14.10;11.27;;;2.20;99.90;;;;;;10430999;28;20234;-91
2023/01/23 02:33:25;;;;;;;12.90;9.70;;;2.60;99.90;;;;;;10464196;28;20246;-91
2023/01/23 02:38:43;;;;;;;21.40;11.97;;;3.20;99.90;;;;;;10447966;28;20272;-91
2023/01/23 02:43:49;;;;;;;15.93;8.93;;;2.50;99.90;;;;;;10447956;28;20646;-91
2023/01/23 02:48:52;;;;;;;21.23;13.23;;;2.10;99.90;;;;;;10431394;28;20226;-91
2023/01/23 02:53:55;;;;;;;18.50;12.07;;;1.80;99.90;;;;;;10447275;28;20268;-92
2023/01/23 03:04:19;;;;;;;15.70;10.73;;;1.80;99.90;;;;;;10449373;28;20249;-94
2023/01/23 03:09:22;;;;;;;16.43;12.27;;;2.30;99.90;;;;;;10447550;28;20211;-93
2023/01/23 03:14:24;;;;;;;20.20;13.17;;;2.20;99.90;;;;;;10414539;28;20239;-94
2023/01/23 03:19:27;;;;;;;16.77;12.00;;;2.40;99.90;;;;;;10419757;28;20211;-93
2023/01/23 03:24:32;;;;;;;20.27;13.90;;;2.10;99.90;;;;;;10454809;28;20706;-92
2023/01/23 03:34:56;;;;;;;15.63;10.80;;;2.10;99.90;;;;;;10496647;28;20811;-93
2023/01/23 03:45:21;;;;;;;12.60;8.10;;;2.00;99.90;;;;;;10471584;28;20643;-92
2023/01/23 03:50:23;;;;;;;17.73;10.70;;;1.90;99.90;;;;;;10437928;28;20288;-93
2023/01/23 03:55:26;;;;;;;17.33;11.63;;;1.70;99.90;;;;;;10436897;28;20307;-93
2023/01/23 04:00:29;;;;;;;16.03;11.07;;;1.80;99.90;;;;;;10453571;28;20377;-93
2023/01/23 04:05:38;;;;;;;17.07;13.07;;;1.90;99.90;;;;;;10470228;28;20676;-93
2023/01/23 04:10:41;;;;;;;14.03;10.03;;;1.60;99.90;;;;;;10436719;28;20311;-94
2023/01/23 04:15:50;;;;;;;17.63;12.37;;;1.70;99.90;;;;;;10452307;28;20258;-93
2023/01/23 04:20:54;;;;;;;21.17;12.90;;;1.70;99.90;;;;;;10464901;28;20253;-93
2023/01/23 04:25:57;;;;;;;18.73;12.03;;;1.90;99.90;;;;;;10477174;28;20245;-93
2023/01/23 04:31:01;;;;;;;15.80;10.93;;;1.80;99.90;;;;;;10476726;28;20241;-94
2023/01/23 04:36:08;;;;;;;19.07;12.80;;;1.50;99.90;;;;;;10444530;28;20278;-94
2023/01/23 04:41:18;;;;;;;13.83;9.80;;;1.70;99.90;;;;;;10419608;28;20281;-94
2023/01/23 04:46:21;;;;;;;22.43;14.23;;;2.00;99.90;;;;;;10436129;28;20223;-93
2023/01/23 04:51:32;;;;;;;18.37;13.73;;;1.70;99.90;;;;;;10451582;28;20194;-93
2023/01/23 04:56:34;;;;;;;17.60;12.90;;;1.30;99.90;;;;;;10420083;28;20203;-95
2023/01/23 05:01:39;;;;;;;17.77;11.97;;;1.30;99.90;;;;;;10460078;28;20226;-95
2023/01/23 05:06:42;;;;;;;23.23;12.57;;;1.50;99.90;;;;;;10459743;28;20218;-96
2023/01/23 05:11:45;;;;;;;20.83;14.67;;;1.40;99.90;;;;;;10456038;28;20626;-96
2023/01/23 05:16:48;;;;;;;19.40;13.00;;;1.60;99.90;;;;;;10464793;28;20292;-96
2023/01/23 05:22:04;;;;;;;16.97;12.30;;;1.60;99.90;;;;;;10466025;28;20249;-96
2023/01/23 05:27:06;;;;;;;21.17;14.00;;;1.40;99.90;;;;;;10440294;28;20257;-94
2023/01/23 05:32:13;;;;;;;17.83;13.73;;;1.40;99.90;;;;;;10471696;28;20203;-94
2023/01/23 05:37:19;;;;;;;24.57;14.83;;;2.10;99.90;;;;;;10454134;28;20253;-90
2023/01/23 05:42:26;;;;;;;25.17;16.93;;;4.50;99.90;;;;;;10407946;28;20264;-90
2023/01/23 05:47:48;;;;;;;23.47;17.90;;;4.70;99.90;;;;;;10430390;28;20232;-90
2023/01/23 05:52:52;;;;;;;24.27;16.47;;;3.30;99.90;;;;;;10449469;28;20242;-90
2023/01/23 05:57:54;;;;;;;24.67;14.63;;;2.50;99.90;;;;;;10432523;28;20288;-90
2023/01/23 06:03:00;;;;;;;22.80;16.53;;;2.10;99.90;;;;;;10450063;28;20777;-91
2023/01/23 06:08:31;;;;;;;22.40;14.60;;;2.30;99.90;;;;;;10447878;28;20210;-92
2023/01/23 06:13:34;;;;;;;25.73;16.87;;;3.00;99.90;;;;;;10431810;28;20261;-92
2023/01/23 06:18:37;;;;;;;26.77;18.37;;;2.90;99.90;;;;;;10431844;28;20258;-92
2023/01/23 06:23:40;;;;;;;26.60;16.57;;;2.40;99.90;;;;;;10449317;28;20250;-90
2023/01/23 06:28:44;;;;;;;36.37;25.03;;;2.20;99.90;;;;;;10447590;28;20287;-91
2023/01/23 06:33:50;;;;;;;44.97;32.10;;;2.30;99.90;;;;;;10447833;28;20211;-90
2023/01/23 06:38:56;;;;;;;45.47;25.13;;;2.40;99.90;;;;;;10431931;28;20210;-91
2023/01/23 06:44:06;;;;;;;32.13;17.20;;;2.70;99.90;;;;;;10421892;28;20260;-91
2023/01/23 06:49:09;;;;;;;24.13;16.43;;;2.70;99.90;;;;;;10407142;28;20774;-90
2023/01/23 06:54:12;;;;;;;17.67;14.00;;;2.80;99.90;;;;;;10411109;28;20219;-92
2023/01/23 06:59:15;;;;;;;23.80;14.87;;;2.40;99.90;;;;;;10455534;28;20688;-90
2023/01/23 07:04:19;;;;;;;38.77;20.27;;;2.20;99.90;;;;;;10454920;28;20304;-90
2023/01/23 07:09:24;;;;;;;26.63;15.50;;;1.70;99.90;;;;;;10434606;28;20231;-90
2023/01/23 07:14:39;;;;;;;37.40;23.47;;;1.70;99.90;;;;;;10413694;28;20290;-91
2023/01/23 07:19:44;;;;;;;22.33;14.50;;;1.70;99.90;;;;;;10470585;28;20242;-90
2023/01/23 07:24:50;;;;;;;22.80;15.73;;;1.60;99.90;;;;;;10495898;28;20685;-90
2023/01/23 07:29:52;;;;;;;28.27;16.63;;;1.70;99.90;;;;;;10473201;28;20277;-89
2023/01/23 07:34:55;;;;;;;43.17;21.40;;;2.10;99.90;;;;;;10454946;28;20756;-89
2023/01/23 07:39:57;;;;;;;28.47;18.23;;;2.50;99.90;;;;;;10465958;28;20688;-91
2023/01/23 07:45:00;;;;;;;23.63;15.70;;;2.50;99.90;;;;;;10495870;28;20375;-91
2023/01/23 07:50:03;;;;;;;24.17;15.60;;;2.00;99.90;;;;;;10472622;28;20238;-91
2023/01/23 07:55:06;;;;;;;17.87;13.80;;;1.90;99.90;;;;;;10476757;28;20292;-91
2023/01/23 08:00:09;;;;;;;20.53;13.87;;;1.90;99.90;;;;;;10451480;28;20234;-92
2023/01/23 08:05:15;;;;;;;26.17;14.77;;;1.50;99.90;;;;;;10416324;28;20251;-91
2023/01/23 08:10:18;;;;;;;21.40;14.70;;;;;;;;;;10444547;28;20234;-92
2023/01/23 08:15:20;;;;;;;27.50;16.20;;;1.40;99.90;;;;;;10450475;28;20312;-92
2023/01/23 08:20:23;;;;;;;22.37;15.43;;;1.60;99.90;;;;;;10445908;28;20235;-91
2023/01/23 08:25:26;;;;;;;22.40;16.17;;;1.80;99.90;;;;;;10456012;28;20336;-92
2023/01/23 08:30:29;;;;;;;23.97;15.37;;;1.70;99.90;;;;;;10452444;28;20306;-90
2023/01/23 08:35:31;;;;;;;23.30;16.17;;;1.70;99.90;;;;;;10482101;28;20260;-89
2023/01/23 08:40:34;;;;;;;24.07;15.10;;;1.70;99.90;;;;;;10460021;28;20250;-92
2023/01/23 08:45:36;;;;;;;23.83;16.27;;;2.20;99.90;;;;;;10435875;28;20255;-90
2023/01/23 08:50:39;;;;;;;26.93;16.13;;;3.00;99.90;;;;;;10451432;28;20279;-90
2023/01/23 08:55:42;;;;;;;25.37;17.33;;;3.00;99.90;;;;;;10451316;28;20628;-89
2023/01/23 09:00:46;;;;;;;20.03;14.43;;;3.20;99.90;;;;;;10451211;28;20231;-90
2023/01/23 09:05:48;;;;;;;28.50;18.23;;;3.90;99.90;;;;;;10480555;28;20257;-90
2023/01/23 09:10:51;;;;;;;22.17;14.60;;;3.50;99.90;;;;;;10492202;28;20245;-90
2023/01/23 09:15:54;;;;;;;25.40;17.23;;;3.70;99.90;;;;;;10473876;28;20717;-89
2023/01/23 09:20:57;;;;;;;21.53;15.77;;;4.00;99.90;;;;;;10440615;28;20784;-90
2023/01/23 09:26:08;;;;;;;25.13;17.40;;;4.00;99.90;;;;;;10465631;28;20250;-90
2023/01/23 09:31:12;;;;;;;30.27;18.70;;;3.80;99.90;;;;;;10492141;28;20226;-88
2023/01/23 09:36:15;;;;;;;23.13;15.43;;;4.40;99.90;;;;;;10459590;28;20257;-89
2023/01/23 09:41:25;;;;;;;26.23;15.47;;;4.00;99.90;;;;;;10431694;28;20307;-89
2023/01/23 09:46:36;;;;;;;19.47;14.00;;;4.10;99.90;;;;;;10431166;28;20258;-88
2023/01/23 09:51:48;;;;;;;26.50;18.53;;;5.10;99.90;;;;;;10463919;28;20226;-89
2023/01/23 09:56:51;;;;;;;30.03;19.13;;;4.50;99.90;;;;;;10430985;28;20643;-89
2023/01/23 10:01:54;;;;;;;20.47;14.00;;;4.40;99.90;;;;;;10484066;28;20617;-90
2023/01/23 10:07:06;;;;;;;31.80;20.47;;;4.40;99.90;;;;;;10488669;28;20963;-89
2023/01/23 10:12:42;;;;;;;16.13;10.83;;;4.30;99.90;;;;;;10487833;28;20264;-89
2023/01/23 10:17:51;;;;;;;37.07;23.33;;;3.70;99.90;;;;;;10449033;28;20634;-89
2023/01/23 10:23:39;;;;;;;32.10;19.53;;;3.40;99.90;;;;;;10449190;28;20246;-89
2023/01/23 10:28:43;;;;;;;25.83;16.80;;;4.20;99.90;;;;;;10471963;28;20260;-90
2023/01/23 10:34:02;;;;;;;35.77;22.00;;;4.90;99.90;;;;;;10472127;28;20241;-90
2023/01/23 10:39:19;;;;;;;30.73;19.30;;;5.80;99.90;;;;;;10455291;28;20299;-90
2023/01/23 10:44:21;;;;;;;40.87;23.17;;;5.70;99.90;;;;;;10446604;28;20262;-90
2023/01/23 10:49:36;;;;;;;36.70;22.60;;;5.50;99.90;;;;;;10444929;28;20256;-90
2023/01/23 10:54:45;;;;;;;41.77;23.57;;;5.00;99.90;;;;;;10451113;28;20714;-89
2023/01/23 11:00:16;;;;;;;20.20;13.93;;;5.10;99.90;;;;;;10466979;28;20298;-89
2023/01/23 11:05:39;;;;;;;41.77;23.37;;;5.50;99.90;;;;;;10489167;28;20402;-89
2023/01/23 11:11:13;;;;;;;40.40;24.30;;;5.30;99.90;;;;;;10484770;28;20315;-90
2023/01/23 11:16:21;;;;;;;39.30;23.57;;;5.20;99.90;;;;;;10465566;28;20281;-88
2023/01/23 11:21:31;;;;;;;36.90;22.40;;;4.80;99.90;;;;;;10447826;28;20312;-89
2023/01/23 11:26:35;;;;;;;40.10;22.93;;;5.00;99.90;;;;;;10446140;28;20266;-89
2023/01/23 11:31:40;;;;;;;42.07;24.47;;;4.50;99.90;;;;;;10418897;28;20236;-88
2023/01/23 11:37:11;;;;;;;46.77;25.83;;;4.20;99.90;;;;;;10436279;28;20230;-89
2023/01/23 11:42:15;;;;;;;38.20;22.67;;;3.80;99.90;;;;;;10453417;28;20288;-88
2023/01/23 11:47:38;;;;;;;46.20;27.10;;;3.50;99.90;;;;;;10454858;28;20227;-89
2023/01/23 11:52:58;;;;;;;40.27;24.97;;;3.60;99.90;;;;;;10453852;28;20317;-88
2023/01/23 11:58:28;;;;;;;41.50;23.53;;;3.80;99.90;;;;;;10437344;28;20679;-89
2023/01/23 12:03:56;;;;;;;42.53;26.00;;;3.60;99.90;;;;;;10465567;28;20273;-89
2023/01/23 12:09:11;;;;;;;42.00;22.67;;;3.30;99.90;;;;;;10444893;28;20247;-89
2023/01/23 12:14:33;;;;;;;41.93;25.10;;;3.60;99.90;;;;;;10468603;28;20270;-90
2023/01/23 12:20:04;;;;;;;44.27;25.23;;;3.40;99.90;;;;;;10446714;28;20271;-90
2023/01/23 12:25:33;;;;;;;41.50;26.43;;;3.20;99.90;;;;;;10494071;28;20258;-90
2023/01/23 12:31:20;;;;;;;49.77;27.43;;;3.00;99.90;;;;;;10490332;28;20289;-89
2023/01/23 12:36:57;;;;;;;47.37;26.53;;;2.60;99.90;;;;;;10462642;28;20292;-90
2023/01/23 12:42:23;;;;;;;49.23;28.80;;;2.60;99.90;;;;;;10439389;28;20243;-89
2023/01/23 12:48:02;;;;;;;48.30;26.30;;;2.60;99.90;;;;;;10409680;28;20293;-90
2023/01/23 12:53:11;;;;;;;49.60;26.17;;;2.60;99.90;;;;;;10419720;28;20313;-90
2023/01/23 12:58:17;;;;;;;49.43;23.70;;;2.60;99.90;;;;;;10422997;28;20227;-90
2023/01/23 13:03:43;;;;;;;48.93;26.10;;;2.80;99.90;;;;;;10467586;28;20257;-90
2023/01/23 13:09:18;;;;;;;53.03;26.97;;;2.80;99.90;;;;;;10492641;28;20755;-89
2023/01/23 13:14:29;;;;;;;57.27;27.83;;;2.40;99.90;;;;;;10446832;28;20255;-90
2023/01/23 13:25:17;;;;;;;47.53;24.13;;;2.40;99.90;;;;;;10447658;28;20304;-90
2023/01/23 13:30:24;;;;;;;37.93;21.97;;;2.30;99.90;;;;;;10450252;28;20230;-89
2023/01/23 13:35:38;;;;;;;48.50;26.30;;;2.70;99.90;;;;;;10448214;28;20239;-90
2023/01/23 13:41:03;;;;;;;51.77;26.23;;;3.20;99.90;;;;;;10449139;28;20246;-89
2023/01/23 13:46:03;;;;;;;41.80;21.60;;;3.30;99.90;;;;;;10449081;28;20335;-88
2023/01/23 13:51:19;;;;;;;45.13;25.33;;;3.70;99.90;;;;;;10448573;28;20268;-89
2023/01/23 13:56:38;;;;;;;38.53;23.47;;;3.40;99.90;;;;;;10279701;28;20249;-88
2023/01/23 14:08:04;;;;;;;35.57;18.10;;;3.70;99.90;;;;;;10065535;29;20745;-88
2023/01/23 14:13:21;;;;;;;46.97;26.63;;;5.30;99.90;;;;;;9969807;29;20352;-88
2023/01/23 14:18:48;;;;;;;41.33;21.83;;;4.50;99.90;;;;;;9867149;30;20650;-88
2023/01/23 14:24:25;;;;;;;44.33;26.50;;;4.30;99.90;;;;;;9781959;30;20372;-88
2023/01/23 14:29:28;;;;;;;40.63;22.73;;;4.00;99.90;;;;;;9890957;29;20749;-89
2023/01/23 14:34:38;;;;;;;35.90;21.27;;;3.50;99.90;;;;;;10000818;29;20248;-88
2023/01/23 14:39:46;;;;;;;52.27;28.73;;;3.30;99.90;;;;;;10090764;29;20234;-88
2023/01/23 14:44:57;;;;;;;53.50;27.77;;;3.50;99.90;;;;;;10247164;28;20320;-89
2023/01/23 14:50:01;;;;;;;57.73;31.77;;;3.30;99.90;;;;;;10416138;28;20230;-89
2023/01/23 14:55:23;;;;;;;52.67;29.13;;;3.60;99.90;;;;;;10486122;28;20298;-90
2023/01/23 15:00:34;;;;;;;57.53;31.27;;;3.90;99.90;;;;;;10486388;28;20981;-89
2023/01/23 15:05:39;;;;;;;55.73;30.57;;;3.70;99.90;;;;;;10448085;28;20650;-90
2023/01/23 15:10:42;;;;;;;54.80;28.13;;;3.50;99.90;;;;;;10480752;28;20237;-91
2023/01/23 15:15:48;;;;;;;62.37;33.53;;;3.20;99.90;;;;;;10492611;28;20653;-88
2023/01/23 15:20:56;;;;;;;57.63;32.73;;;2.80;99.90;;;;;;10494930;28;20627;-89
2023/01/23 15:26:13;;;;;;;57.97;29.33;;;2.60;99.90;;;;;;10494254;28;20319;-90
2023/01/23 15:31:39;;;;;;;41.17;20.70;;;2.30;99.90;;;;;;10494796;28;20298;-90
2023/01/23 15:36:45;;;;;;;48.30;27.10;;;2.30;99.90;;;;;;10496292;28;20198;-90
2023/01/23 15:41:53;;;;;;;61.00;33.97;;;2.50;99.90;;;;;;10484393;28;20257;-89
2023/01/23 15:46:59;;;;;;;60.50;32.60;;;2.50;99.90;;;;;;10452244;28;20254;-89
2023/01/23 15:52:22;;;;;;;60.57;31.80;;;2.10;99.90;;;;;;10450326;28;20234;-89
2023/01/23 15:57:25;;;;;;;61.70;32.90;;;1.90;99.90;;;;;;10452363;28;20230;-90
2023/01/23 16:02:28;;;;;;;62.60;32.37;;;1.80;99.90;;;;;;10450460;28;20257;-90
2023/01/23 16:07:40;;;;;;;70.33;38.07;;;1.50;99.90;;;;;;10453465;28;20258;-84
2023/01/23 16:12:45;;;;;;;61.33;29.87;;;1.80;99.90;;;;;;10467489;28;20231;-90
2023/01/23 16:17:48;;;;;;;44.73;23.67;;;1.30;99.90;;;;;;10466798;28;20280;-88
2023/01/23 16:22:55;;;;;;;59.33;29.30;;;1.50;99.90;;;;;;10453736;28;20285;-90
2023/01/23 16:27:58;;;;;;;55.63;31.17;;;1.70;99.90;;;;;;10459873;28;20254;-91
2023/01/23 16:33:00;;;;;;;63.90;34.63;;;1.50;99.90;;;;;;10435205;28;20227;-91
2023/01/23 16:38:04;;;;;;;97.27;44.50;;;1.60;99.90;;;;;;10453522;28;20287;-91
2023/01/23 16:43:08;;;;;;;99.57;49.57;;;1.80;99.90;;;;;;10470127;28;20234;-91
2023/01/23 16:48:10;;;;;;;58.00;31.10;;;2.30;99.90;;;;;;10496037;28;20198;-92
2023/01/23 16:53:35;;;;;;;46.80;26.43;;;1.90;99.90;;;;;;10461416;28;20625;-87
2023/01/23 16:58:39;;;;;;;87.93;41.50;;;2.90;99.90;;;;;;10454081;28;20296;-90
2023/01/23 17:03:43;;;;;;;54.80;27.03;;;4.20;99.90;;;;;;10453639;28;20251;-89
2023/01/23 17:08:46;;;;;;;68.87;36.57;;;4.10;99.90;;;;;;10455930;28;20235;-89
2023/01/23 17:13:59;;;;;;;92.23;51.67;;;4.00;99.90;;;;;;10453734;28;20206;-89
2023/01/23 17:19:09;;;;;;;95.03;52.60;;;2.30;99.90;;;;;;10114439;28;10000252;-90
2023/01/23 17:24:15;;;;;;;98.30;51.13;;;1.50;99.90;;;;;;10449131;28;20242;-90
2023/01/23 17:29:18;;;;;;;97.13;50.70;;;1.00;99.90;;;;;;10473123;28;20218;-89
2023/01/23 17:34:23;;;;;;;104.27;49.90;;;;;;;;;;10460127;28;20664;-92
2023/01/23 17:39:25;;;;;;;112.33;55.00;;;0.70;99.90;;;;;;10431319;28;20292;-92
2023/01/23 17:44:28;;;;;;;178.20;78.90;;;0.70;99.90;;;;;;10458426;28;20254;-92
2023/01/23 17:49:31;;;;;;;170.53;84.10;;;0.60;99.90;;;;;;10450169;28;20281;-92
2023/01/23 17:54:35;;;;;;;108.27;53.57;;;0.60;99.90;;;;;;10450833;28;20296;-91
2023/01/23 17:59:38;;;;;;;81.43;37.50;;;0.60;99.90;;;;;;10455219;28;20233;-92
2023/01/23 18:04:40;;;;;;;59.20;29.17;;;0.60;99.90;;;;;;10463952;28;20627;-92
2023/01/23 18:09:43;;;;;;;57.93;27.50;;;0.90;99.90;;;;;;10486466;28;20245;-93
2023/01/23 18:14:48;;;;;;;79.77;39.23;;;1.70;99.90;;;;;;10473282;28;20272;-93
2023/01/23 18:19:52;;;;;;;76.40;39.57;;;1.90;99.90;;;;;;10491456;28;20234;-92
2023/01/23 18:24:55;;;;;;;69.17;37.23;;;2.80;99.90;;;;;;10456859;28;20254;-93
2023/01/23 18:30:17;;;;;;;56.40;31.73;;;2.30;99.90;;;;;;10457176;28;20227;-93
2023/01/23 18:35:54;;;;;;;66.77;38.00;;;2.40;99.90;;;;;;10449917;28;20230;-91
2023/01/23 18:40:57;;;;;;;58.67;30.27;;;2.50;99.90;;;;;;10454267;28;20238;-93
2023/01/23 18:46:00;;;;;;;64.07;37.67;;;2.60;99.90;;;;;;10430476;28;20257;-93
2023/01/23 18:51:18;;;;;;;46.03;25.67;;;2.80;99.90;;;;;;10446801;28;20284;-92
2023/01/23 18:56:41;;;;;;;60.43;34.93;;;3.40;99.90;;;;;;10447167;28;20234;-92
2023/01/23 19:02:00;;;;;;;57.73;33.30;;;2.90;99.90;;;;;;10446994;28;20226;-94
2023/01/23 19:07:09;;;;;;;58.93;33.00;;;2.70;99.90;;;;;;10448860;28;20253;-89
2023/01/23 19:12:30;;;;;;;67.23;41.30;;;2.90;99.90;;;;;;10448193;28;20234;-95
2023/01/23 19:17:42;;;;;;;55.83;29.80;;;1.60;99.90;;;;;;10433101;28;20306;-94
2023/01/23 19:22:52;;;;;;;55.67;28.77;;;1.50;99.90;;;;;;10449767;28;20230;-94
2023/01/23 19:27:57;;;;;;;48.23;27.00;;;2.20;99.90;;;;;;10466956;28;20241;-94
2023/01/23 19:33:00;;;;;;;54.43;29.23;;;3.50;99.90;;;;;;10489404;28;20199;-92
2023/01/23 19:38:04;;;;;;;54.50;30.57;;;4.80;99.90;;;;;;10462329;28;20230;-93
2023/01/23 19:43:15;;;;;;;59.97;34.97;;;4.40;99.90;;;;;;10450955;28;20238;-93
2023/01/23 19:48:18;;;;;;;51.10;29.33;;;4.20;99.90;;;;;;10440287;28;20251;-93
2023/01/23 19:53:22;;;;;;;52.00;30.90;;;3.90;99.90;;;;;;10448159;28;20671;-92
2023/01/23 19:58:26;;;;;;;48.97;30.40;;;3.80;99.90;;;;;;10442860;28;20246;-92
2023/01/23 20:03:29;;;;;;;53.47;32.00;;;3.70;99.90;;;;;;10437089;28;20662;-91
2023/01/23 20:08:32;;;;;;;54.90;31.33;;;3.50;99.90;;;;;;10452782;28;20674;-91
2023/01/23 20:13:36;;;;;;;47.83;28.77;;;3.60;99.90;;;;;;10462697;28;20223;-91
2023/01/23 20:18:40;;;;;;;43.93;24.77;;;4.20;99.90;;;;;;10454729;28;20334;-90
2023/01/23 20:23:44;;;;;;;51.10;31.13;;;4.40;99.90;;;;;;10449923;28;20260;-90
2023/01/23 20:28:54;;;;;;;54.00;31.87;;;4.30;99.90;;;;;;10490760;28;20258;-91
2023/01/23 20:33:58;;;;;;;50.27;28.80;;;3.90;99.90;;;;;;10495927;28;20233;-91
2023/01/23 20:39:02;;;;;;;56.10;32.67;;;3.80;99.90;;;;;;10454214;28;20250;-91
2023/01/23 20:44:05;;;;;;;63.73;35.90;;;3.50;99.90;;;;;;10435632;28;20683;-90
2023/01/23 20:49:13;;;;;;;55.60;31.57;;;3.00;99.90;;;;;;10449605;28;20234;-90
2023/01/23 20:54:16;;;;;;;51.17;28.30;;;3.30;99.90;;;;;;10458278;28;20295;-91
2023/01/23 20:59:22;;;;;;;56.03;31.97;;;4.10;99.90;;;;;;10453529;28;20238;-90
2023/01/23 21:04:30;;;;;;;52.40;32.30;;;3.30;99.90;;;;;;10452323;28;20628;-90
2023/01/23 21:09:34;;;;;;;56.87;32.43;;;3.00;99.90;;;;;;10434524;28;20240;-90
2023/01/23 21:14:38;;;;;;;58.07;33.43;;;2.80;99.90;;;;;;10466246;28;20302;-90
2023/01/23 21:19:41;;;;;;;52.63;32.20;;;2.70;99.90;;;;;;10451857;28;20265;-89
2023/01/23 21:24:44;;;;;;;53.87;31.00;;;3.20;99.90;;;;;;10460458;28;20288;-89
2023/01/23 21:29:47;;;;;;;61.00;34.07;;;3.20;99.90;;;;;;10452171;28;20288;-89
2023/01/23 21:34:52;;;;;;;54.40;32.50;;;2.90;99.90;;;;;;10465884;28;20202;-90
2023/01/23 21:39:55;;;;;;;50.70;33.27;;;3.30;99.90;;;;;;10451164;28;20243;-90
2023/01/23 21:44:57;;;;;;;55.73;32.27;;;4.10;99.90;;;;;;10449391;28;20307;-90
2023/01/23 21:50:00;;;;;;;51.87;32.77;;;3.20;99.90;;;;;;10433635;28;20284;-89
2023/01/23 21:55:03;;;;;;;53.97;32.20;;;4.00;99.90;;;;;;10449802;28;20765;-90
2023/01/23 22:05:28;;;;;;;52.77;31.87;;;3.20;99.90;;;;;;10462079;28;20249;-89
2023/01/23 22:10:31;;;;;;;57.03;31.17;;;3.00;99.90;;;;;;10429044;28;20230;-90
2023/01/23 22:15:33;;;;;;;52.43;30.33;;;2.80;99.90;;;;;;10447570;28;20258;-90
2023/01/23 22:20:39;;;;;;;52.47;30.83;;;2.80;99.90;;;;;;10430087;28;20230;-90
2023/01/23 22:25:41;;;;;;;48.07;31.47;;;2.40;99.90;;;;;;10445851;28;20250;-90
2023/01/23 22:30:44;;;;;;;45.67;27.47;;;2.20;99.90;;;;;;10440335;28;20230;-90
2023/01/23 22:35:47;;;;;;;50.47;30.50;;;2.80;99.90;;;;;;10446914;28;20231;-90
2023/01/23 22:41:00;;;;;;;46.03;26.97;;;2.90;99.90;;;;;;10446343;28;20246;-90
2023/01/23 22:46:12;;;;;;;48.93;29.73;;;3.70;99.90;;;;;;10428786;28;21074;-90
2023/01/23 22:51:22;;;;;;;36.23;23.30;;;3.20;99.90;;;;;;10446509;28;20284;-90
2023/01/23 22:56:27;;;;;;;41.97;26.97;;;3.10;99.90;;;;;;10446112;28;20305;-88
2023/01/23 23:01:29;;;;;;;46.70;28.43;;;3.60;99.90;;;;;;10448152;28;20329;-89
2023/01/23 23:06:32;;;;;;;45.00;28.60;;;3.30;99.90;;;;;;10448774;28;20289;-88
2023/01/23 23:11:36;;;;;;;46.87;30.13;;;3.40;99.90;;;;;;10438040;28;20737;-89
2023/01/23 23:16:39;;;;;;;48.77;29.33;;;3.70;99.90;;;;;;10459541;28;20258;-88
2023/01/23 23:21:42;;;;;;;41.83;27.17;;;3.70;99.90;;;;;;10429922;28;20232;-89
2023/01/23 23:26:44;;;;;;;44.77;25.37;;;3.70;99.90;;;;;;10446397;28;20255;-88
2023/01/23 23:31:50;;;;;;;42.47;28.80;;;3.50;99.90;;;;;;10463667;28;20945;-88
2023/01/23 23:36:53;;;;;;;37.27;24.30;;;3.80;99.90;;;;;;10444857;28;20248;-89
2023/01/23 23:41:55;;;;;;;40.23;27.10;;;3.30;99.90;;;;;;10497462;28;20235;-88
2023/01/23 23:46:58;;;;;;;42.93;26.93;;;4.00;99.90;;;;;;10456106;28;20266;-88
2023/01/23 23:52:00;;;;;;;42.20;27.07;;;3.80;99.90;;;;;;10455881;28;20227;-88
2023/01/23 23:57:03;;;;;;;46.27;29.30;;;3.30;99.90;;;;;;10455699;28;20231;-88
